Bird City, KS

10:59 AM CDT on May 04, 2015 (GMT -0500)
KHMYKSBI2 | | Change Station
CLOSE
Current Station
Personal Weather Station
Location: Bird City, KS
Elevation: 3524 ft
Nearby Weather Stations

Elev 3524 ft 39.76 °N, 101.60 °W | Updated 4 seconds ago

Overcast
Overcast
57.6 °F
Feels Like 57.6 °F
N
10.0
Wind Variable Wind from ENE
Gusts 11.0 mph

Today
High -- | Low -- °F
--% Chance of Precip.
Yesterday
High -- | Low -- °F
Precip. -- in
6:43 AM 8:43 PM
Full, 100% visible
Pressure 30.10 in
Visibility 10.0 miles
Clouds Mostly Cloudy 8000 ft
Overcast 10000 ft
Dew Point 44 °F
Humidity 61%
Rainfall 0.00 in
Snow Depth Not available.
UV 1.0 out of 12
Pollen 6.60 out of 12
Air Quality Not available.
Flu Activity Sporadic
METAR KSYF 041535Z AUTO 04006KT 10SM RA BKN080 OVC100 13/05 A3010 RMK AO2 T01330045

More Conditions Fewer Conditions

Pressure 30.10 in
Visibility 10.0 miles
Clouds Mostly Cloudy 8000 ft
Overcast 10000 ft
Dew Point 44 °F
Humidity 61%
Rainfall 0.00 in
Snow Depth Not available.
UV 1.0 out of 12
Pollen 6.60 out of 12
Air Quality Not available.
Flu Activity Sporadic
METAR KSYF 041535Z AUTO 04006KT 10SM RA BKN080 OVC100 13/05 A3010 RMK AO2 T01330045

More Conditions Fewer Conditions

Nepal has a long way to go to dig out and rebuild from a devastating earthquake. We have teamed up with several charities and organizations to make contributing to the relief effort as easy as possible.
How you can help: Portlight Strategies | Red Cross

10-Day Weather Forecast

Almanac

Astronomy

May. 04, 2015 Rise Set
Actual Time
Civil Twilight
Nautical Twilight
Astronomical Twilight
Moon
Length of Visible Light
Length of Day
Tomorrow will be .
, % of the Moon is Illuminated

Today's Extremes

State Highs State Lows

Community

WunderPhotos

Upload Photos

1,818,647 photos uploaded!

WunderBlogs® & News

Nearby

Air Quality

  Air Quality AQ Index Pollutant
Not available.

Snow Depth

Station Depth Elevation

Earthquake Activity

City Distance Mag. Time & Date
Minimum magnitude displayed is 2.5.

Coastal Water Temperatures

Place Temperature

Stations

Nearby Weather Stations

Station Location Temp. Windchill Dew Point Humidity Wind Precip. Elev Updated Type